sensor_id;sensor_type;location;lat;lon;timestamp;temperature;humidity
22145;DHT22;11238;48.730;11.566;2022-10-16T00:00:34;14.30;99.90
22145;DHT22;11238;48.730;11.566;2022-10-16T00:03:01;14.30;99.90
22145;DHT22;11238;48.730;11.566;2022-10-16T00:05:27;14.30;99.90
22145;DHT22;11238;48.730;11.566;2022-10-16T00:07:53;14.30;99.90
22145;DHT22;11238;48.730;11.566;2022-10-16T00:10:19;14.30;99.90
22145;DHT22;11238;48.730;11.566;2022-10-16T00:12:45;14.30;99.90
22145;DHT22;11238;48.730;11.566;2022-10-16T00:15:11;14.20;99.90
22145;DHT22;11238;48.730;11.566;2022-10-16T00:17:37;14.20;99.90
22145;DHT22;11238;48.730;11.566;2022-10-16T00:20:04;14.20;99.90
22145;DHT22;11238;48.730;11.566;2022-10-16T00:22:30;14.20;99.90
22145;DHT22;11238;48.730;11.566;2022-10-16T00:24:56;14.10;99.90
22145;DHT22;11238;48.730;11.566;2022-10-16T00:27:22;14.10;99.90
22145;DHT22;11238;48.730;11.566;2022-10-16T00:29:51;14.10;99.90
22145;DHT22;11238;48.730;11.566;2022-10-16T00:32:18;14.10;99.90
22145;DHT22;11238;48.730;11.566;2022-10-16T00:34:45;14.10;99.90
22145;DHT22;11238;48.730;11.566;2022-10-16T00:37:11;14.10;99.90
22145;DHT22;11238;48.730;11.566;2022-10-16T00:39:38;14.10;99.90
22145;DHT22;11238;48.730;11.566;2022-10-16T00:42:03;14.10;99.90
22145;DHT22;11238;48.730;11.566;2022-10-16T00:47:12;14.10;99.90
22145;DHT22;11238;48.730;11.566;2022-10-16T00:49:41;14.00;99.90
22145;DHT22;11238;48.730;11.566;2022-10-16T00:52:07;14.00;99.90
22145;DHT22;11238;48.730;11.566;2022-10-16T00:54:33;14.00;99.90
22145;DHT22;11238;48.730;11.566;2022-10-16T00:57:01;14.10;99.90
22145;DHT22;11238;48.730;11.566;2022-10-16T00:59:36;14.00;99.90
22145;DHT22;11238;48.730;11.566;2022-10-16T01:02:03;14.10;99.90
22145;DHT22;11238;48.730;11.566;2022-10-16T01:04:34;14.10;99.90
22145;DHT22;11238;48.730;11.566;2022-10-16T01:13:10;14.10;99.90
22145;DHT22;11238;48.730;11.566;2022-10-16T01:15:50;14.10;99.90
22145;DHT22;11238;48.730;11.566;2022-10-16T01:18:23;14.00;99.90
22145;DHT22;11238;48.730;11.566;2022-10-16T01:20:59;14.00;99.90
22145;DHT22;11238;48.730;11.566;2022-10-16T01:29:03;13.90;99.90
22145;DHT22;11238;48.730;11.566;2022-10-16T01:31:35;13.90;99.90
22145;DHT22;11238;48.730;11.566;2022-10-16T01:34:20;13.90;99.90
22145;DHT22;11238;48.730;11.566;2022-10-16T01:36:52;13.80;99.90
22145;DHT22;11238;48.730;11.566;2022-10-16T01:39:22;13.80;99.90
22145;DHT22;11238;48.730;11.566;2022-10-16T01:41:55;13.80;99.90
22145;DHT22;11238;48.730;11.566;2022-10-16T01:44:28;13.90;99.90
22145;DHT22;11238;48.730;11.566;2022-10-16T01:46:55;13.80;99.90
22145;DHT22;11238;48.730;11.566;2022-10-16T01:49:23;13.80;99.90
22145;DHT22;11238;48.730;11.566;2022-10-16T01:51:53;13.80;99.90
22145;DHT22;11238;48.730;11.566;2022-10-16T01:54:20;13.90;99.90
22145;DHT22;11238;48.730;11.566;2022-10-16T01:56:49;13.90;99.90
22145;DHT22;11238;48.730;11.566;2022-10-16T01:59:19;13.90;99.90
22145;DHT22;11238;48.730;11.566;2022-10-16T02:01:49;13.90;99.90
22145;DHT22;11238;48.730;11.566;2022-10-16T02:04:33;13.90;99.90
22145;DHT22;11238;48.730;11.566;2022-10-16T02:07:00;13.80;99.90
22145;DHT22;11238;48.730;11.566;2022-10-16T02:09:26;13.80;99.90
22145;DHT22;11238;48.730;11.566;2022-10-16T02:11:57;13.80;99.90
22145;DHT22;11238;48.730;11.566;2022-10-16T02:14:26;13.80;99.90
22145;DHT22;11238;48.730;11.566;2022-10-16T02:16:52;13.80;99.90
22145;DHT22;11238;48.730;11.566;2022-10-16T02:19:18;13.70;99.90
22145;DHT22;11238;48.730;11.566;2022-10-16T02:21:53;13.60;99.90
22145;DHT22;11238;48.730;11.566;2022-10-16T02:24:33;13.60;99.90
22145;DHT22;11238;48.730;11.566;2022-10-16T02:27:15;13.60;99.90
22145;DHT22;11238;48.730;11.566;2022-10-16T02:29:47;13.50;99.90
22145;DHT22;11238;48.730;11.566;2022-10-16T02:32:19;13.60;99.90
22145;DHT22;11238;48.730;11.566;2022-10-16T02:34:48;13.60;99.90
22145;DHT22;11238;48.730;11.566;2022-10-16T02:37:15;13.50;99.90
22145;DHT22;11238;48.730;11.566;2022-10-16T02:39:41;13.50;99.90
22145;DHT22;11238;48.730;11.566;2022-10-16T02:42:12;13.50;99.90
22145;DHT22;11238;48.730;11.566;2022-10-16T02:44:39;13.50;99.90
22145;DHT22;11238;48.730;11.566;2022-10-16T02:47:04;13.50;99.90
22145;DHT22;11238;48.730;11.566;2022-10-16T02:49:30;13.50;99.90
22145;DHT22;11238;48.730;11.566;2022-10-16T02:51:56;13.50;99.90
22145;DHT22;11238;48.730;11.566;2022-10-16T02:54:22;13.50;99.90
22145;DHT22;11238;48.730;11.566;2022-10-16T02:56:48;13.50;99.90
22145;DHT22;11238;48.730;11.566;2022-10-16T02:59:14;13.40;99.90
22145;DHT22;11238;48.730;11.566;2022-10-16T03:01:39;13.40;99.90
22145;DHT22;11238;48.730;11.566;2022-10-16T03:04:05;13.40;99.90
22145;DHT22;11238;48.730;11.566;2022-10-16T03:06:31;13.40;99.90
22145;DHT22;11238;48.730;11.566;2022-10-16T03:08:57;13.20;99.90
22145;DHT22;11238;48.730;11.566;2022-10-16T03:11:23;13.20;99.90
22145;DHT22;11238;48.730;11.566;2022-10-16T03:13:49;13.20;99.90
22145;DHT22;11238;48.730;11.566;2022-10-16T03:16:15;13.20;99.90
22145;DHT22;11238;48.730;11.566;2022-10-16T03:18:41;13.20;99.90
22145;DHT22;11238;48.730;11.566;2022-10-16T03:21:07;13.20;99.90
22145;DHT22;11238;48.730;11.566;2022-10-16T03:23:33;13.20;99.90
22145;DHT22;11238;48.730;11.566;2022-10-16T03:25:58;13.10;99.90
22145;DHT22;11238;48.730;11.566;2022-10-16T03:28:24;13.10;99.90
22145;DHT22;11238;48.730;11.566;2022-10-16T03:30:50;13.10;99.90
22145;DHT22;11238;48.730;11.566;2022-10-16T03:33:16;13.10;99.90
22145;DHT22;11238;48.730;11.566;2022-10-16T03:35:42;13.10;99.90
22145;DHT22;11238;48.730;11.566;2022-10-16T03:38:08;13.10;99.90
22145;DHT22;11238;48.730;11.566;2022-10-16T03:40:33;13.10;99.90
22145;DHT22;11238;48.730;11.566;2022-10-16T03:42:59;13.10;99.90
22145;DHT22;11238;48.730;11.566;2022-10-16T03:45:25;13.10;99.90
22145;DHT22;11238;48.730;11.566;2022-10-16T03:47:52;13.00;99.90
22145;DHT22;11238;48.730;11.566;2022-10-16T03:50:18;13.00;99.90
22145;DHT22;11238;48.730;11.566;2022-10-16T03:52:44;13.00;99.90
22145;DHT22;11238;48.730;11.566;2022-10-16T03:55:10;12.90;99.90
22145;DHT22;11238;48.730;11.566;2022-10-16T03:57:35;13.00;99.90
22145;DHT22;11238;48.730;11.566;2022-10-16T04:00:01;13.00;99.90
22145;DHT22;11238;48.730;11.566;2022-10-16T04:02:37;13.00;99.90
22145;DHT22;11238;48.730;11.566;2022-10-16T04:05:03;13.00;99.90
22145;DHT22;11238;48.730;11.566;2022-10-16T04:07:29;13.00;99.90
22145;DHT22;11238;48.730;11.566;2022-10-16T04:09:55;13.00;99.90
22145;DHT22;11238;48.730;11.566;2022-10-16T04:12:22;12.90;99.90
22145;DHT22;11238;48.730;11.566;2022-10-16T04:14:48;13.00;99.90
22145;DHT22;11238;48.730;11.566;2022-10-16T04:17:14;13.10;99.90
22145;DHT22;11238;48.730;11.566;2022-10-16T04:19:40;13.00;99.90
22145;DHT22;11238;48.730;11.566;2022-10-16T04:22:06;13.00;99.90
22145;DHT22;11238;48.730;11.566;2022-10-16T04:24:31;13.00;99.90
22145;DHT22;11238;48.730;11.566;2022-10-16T04:26:57;13.00;99.90
22145;DHT22;11238;48.730;11.566;2022-10-16T04:29:23;13.00;99.90
22145;DHT22;11238;48.730;11.566;2022-10-16T04:31:48;13.00;99.90
22145;DHT22;11238;48.730;11.566;2022-10-16T04:34:15;13.00;99.90
22145;DHT22;11238;48.730;11.566;2022-10-16T04:36:40;13.10;99.90
22145;DHT22;11238;48.730;11.566;2022-10-16T04:39:06;13.10;99.90
22145;DHT22;11238;48.730;11.566;2022-10-16T04:41:32;13.10;99.90
22145;DHT22;11238;48.730;11.566;2022-10-16T04:43:58;13.10;99.90
22145;DHT22;11238;48.730;11.566;2022-10-16T04:46:24;13.10;99.90
22145;DHT22;11238;48.730;11.566;2022-10-16T04:48:50;13.10;99.90
22145;DHT22;11238;48.730;11.566;2022-10-16T04:51:15;13.10;99.90
22145;DHT22;11238;48.730;11.566;2022-10-16T04:53:41;13.20;99.90
22145;DHT22;11238;48.730;11.566;2022-10-16T04:56:08;13.20;99.90
22145;DHT22;11238;48.730;11.566;2022-10-16T04:58:33;13.20;99.90
22145;DHT22;11238;48.730;11.566;2022-10-16T05:00:59;13.20;99.90
22145;DHT22;11238;48.730;11.566;2022-10-16T05:03:25;13.10;99.90
22145;DHT22;11238;48.730;11.566;2022-10-16T05:05:51;13.10;99.90
22145;DHT22;11238;48.730;11.566;2022-10-16T05:08:17;13.10;99.90
22145;DHT22;11238;48.730;11.566;2022-10-16T05:10:44;13.10;99.90
22145;DHT22;11238;48.730;11.566;2022-10-16T05:13:10;13.10;99.90
22145;DHT22;11238;48.730;11.566;2022-10-16T05:15:36;13.20;99.90
22145;DHT22;11238;48.730;11.566;2022-10-16T05:18:02;13.20;99.90
22145;DHT22;11238;48.730;11.566;2022-10-16T05:20:29;13.20;99.90
22145;DHT22;11238;48.730;11.566;2022-10-16T05:22:55;13.30;99.90
22145;DHT22;11238;48.730;11.566;2022-10-16T05:25:21;13.20;99.90
22145;DHT22;11238;48.730;11.566;2022-10-16T05:27:48;13.30;99.90
22145;DHT22;11238;48.730;11.566;2022-10-16T05:30:14;13.30;99.90
22145;DHT22;11238;48.730;11.566;2022-10-16T05:32:41;13.30;99.90
22145;DHT22;11238;48.730;11.566;2022-10-16T05:35:07;13.30;99.90
22145;DHT22;11238;48.730;11.566;2022-10-16T05:37:33;13.30;99.90
22145;DHT22;11238;48.730;11.566;2022-10-16T05:39:59;13.30;99.90
22145;DHT22;11238;48.730;11.566;2022-10-16T05:42:25;13.30;99.90
22145;DHT22;11238;48.730;11.566;2022-10-16T05:44:50;13.30;99.90
22145;DHT22;11238;48.730;11.566;2022-10-16T05:47:17;13.20;99.90
22145;DHT22;11238;48.730;11.566;2022-10-16T05:49:43;13.20;99.90
22145;DHT22;11238;48.730;11.566;2022-10-16T05:52:09;13.20;99.90
22145;DHT22;11238;48.730;11.566;2022-10-16T05:54:35;13.30;99.90
22145;DHT22;11238;48.730;11.566;2022-10-16T05:57:00;13.40;99.90
22145;DHT22;11238;48.730;11.566;2022-10-16T05:59:27;13.30;99.90
22145;DHT22;11238;48.730;11.566;2022-10-16T06:01:53;13.30;99.90
22145;DHT22;11238;48.730;11.566;2022-10-16T06:04:19;13.40;99.90
22145;DHT22;11238;48.730;11.566;2022-10-16T06:06:45;13.30;99.90
22145;DHT22;11238;48.730;11.566;2022-10-16T06:09:11;13.30;99.90
22145;DHT22;11238;48.730;11.566;2022-10-16T06:11:37;13.40;99.90
22145;DHT22;11238;48.730;11.566;2022-10-16T06:14:03;13.40;99.90
22145;DHT22;11238;48.730;11.566;2022-10-16T06:16:33;13.40;99.90
22145;DHT22;11238;48.730;11.566;2022-10-16T06:19:00;13.40;99.90
22145;DHT22;11238;48.730;11.566;2022-10-16T06:21:27;13.50;99.90
22145;DHT22;11238;48.730;11.566;2022-10-16T06:23:55;13.60;99.90
22145;DHT22;11238;48.730;11.566;2022-10-16T06:26:24;13.50;99.90
22145;DHT22;11238;48.730;11.566;2022-10-16T06:28:50;13.60;99.90
22145;DHT22;11238;48.730;11.566;2022-10-16T06:31:17;13.60;99.90
22145;DHT22;11238;48.730;11.566;2022-10-16T06:33:43;13.70;99.90
22145;DHT22;11238;48.730;11.566;2022-10-16T06:36:12;13.70;99.90
22145;DHT22;11238;48.730;11.566;2022-10-16T06:38:38;13.80;99.90
22145;DHT22;11238;48.730;11.566;2022-10-16T06:41:05;13.90;99.90
22145;DHT22;11238;48.730;11.566;2022-10-16T06:43:32;13.90;99.90
22145;DHT22;11238;48.730;11.566;2022-10-16T06:46:01;14.10;99.90
22145;DHT22;11238;48.730;11.566;2022-10-16T06:48:28;14.10;99.90
22145;DHT22;11238;48.730;11.566;2022-10-16T06:50:59;14.20;99.90
22145;DHT22;11238;48.730;11.566;2022-10-16T06:53:27;14.30;99.90
22145;DHT22;11238;48.730;11.566;2022-10-16T06:55:53;14.30;99.90
22145;DHT22;11238;48.730;11.566;2022-10-16T06:58:19;14.40;99.90
22145;DHT22;11238;48.730;11.566;2022-10-16T07:00:45;14.40;99.90
22145;DHT22;11238;48.730;11.566;2022-10-16T07:03:12;14.50;99.90
22145;DHT22;11238;48.730;11.566;2022-10-16T07:05:39;14.50;99.90
22145;DHT22;11238;48.730;11.566;2022-10-16T07:08:06;14.50;99.90
22145;DHT22;11238;48.730;11.566;2022-10-16T07:10:32;14.60;99.90
22145;DHT22;11238;48.730;11.566;2022-10-16T07:13:01;14.60;99.90
22145;DHT22;11238;48.730;11.566;2022-10-16T07:15:28;14.70;99.90
22145;DHT22;11238;48.730;11.566;2022-10-16T07:17:54;14.70;99.90
22145;DHT22;11238;48.730;11.566;2022-10-16T07:20:20;14.80;99.90
22145;DHT22;11238;48.730;11.566;2022-10-16T07:22:46;14.90;99.90
22145;DHT22;11238;48.730;11.566;2022-10-16T07:25:12;14.90;99.90
22145;DHT22;11238;48.730;11.566;2022-10-16T07:27:38;15.00;99.90
22145;DHT22;11238;48.730;11.566;2022-10-16T07:30:05;15.10;99.90
22145;DHT22;11238;48.730;11.566;2022-10-16T07:32:31;15.10;99.90
22145;DHT22;11238;48.730;11.566;2022-10-16T07:34:58;15.20;99.90
22145;DHT22;11238;48.730;11.566;2022-10-16T07:37:24;15.30;99.90
22145;DHT22;11238;48.730;11.566;2022-10-16T07:39:50;15.40;99.90
22145;DHT22;11238;48.730;11.566;2022-10-16T07:42:16;15.50;99.90
22145;DHT22;11238;48.730;11.566;2022-10-16T07:44:42;15.50;99.90
22145;DHT22;11238;48.730;11.566;2022-10-16T07:47:08;15.60;99.90
22145;DHT22;11238;48.730;11.566;2022-10-16T07:49:33;15.60;99.90
22145;DHT22;11238;48.730;11.566;2022-10-16T07:51:59;15.60;99.90
22145;DHT22;11238;48.730;11.566;2022-10-16T07:54:25;15.70;99.90
22145;DHT22;11238;48.730;11.566;2022-10-16T07:56:51;15.80;99.90
22145;DHT22;11238;48.730;11.566;2022-10-16T07:59:17;15.80;99.90
22145;DHT22;11238;48.730;11.566;2022-10-16T08:01:43;15.90;99.90
22145;DHT22;11238;48.730;11.566;2022-10-16T08:04:09;16.00;99.90
22145;DHT22;11238;48.730;11.566;2022-10-16T08:06:38;16.20;99.90
22145;DHT22;11238;48.730;11.566;2022-10-16T08:09:06;16.20;99.90
22145;DHT22;11238;48.730;11.566;2022-10-16T08:11:32;16.40;99.90
22145;DHT22;11238;48.730;11.566;2022-10-16T08:13:58;16.40;99.90
22145;DHT22;11238;48.730;11.566;2022-10-16T08:16:24;16.40;99.90
22145;DHT22;11238;48.730;11.566;2022-10-16T08:18:50;16.40;99.90
22145;DHT22;11238;48.730;11.566;2022-10-16T08:21:19;16.40;99.90
22145;DHT22;11238;48.730;11.566;2022-10-16T08:23:46;16.50;99.90
22145;DHT22;11238;48.730;11.566;2022-10-16T08:26:12;16.70;99.90
22145;DHT22;11238;48.730;11.566;2022-10-16T08:28:38;16.70;99.90
22145;DHT22;11238;48.730;11.566;2022-10-16T08:31:13;16.80;99.90
22145;DHT22;11238;48.730;11.566;2022-10-16T08:33:41;16.80;99.90
22145;DHT22;11238;48.730;11.566;2022-10-16T08:36:09;16.90;99.90
22145;DHT22;11238;48.730;11.566;2022-10-16T08:38:35;17.00;99.90
22145;DHT22;11238;48.730;11.566;2022-10-16T08:47:18;17.50;99.90
22145;DHT22;11238;48.730;11.566;2022-10-16T08:50:13;17.70;99.90
22145;DHT22;11238;48.730;11.566;2022-10-16T08:52:40;17.80;99.90
22145;DHT22;11238;48.730;11.566;2022-10-16T08:55:21;17.80;99.90
22145;DHT22;11238;48.730;11.566;2022-10-16T08:57:49;17.90;99.90
22145;DHT22;11238;48.730;11.566;2022-10-16T09:00:21;17.90;99.90
22145;DHT22;11238;48.730;11.566;2022-10-16T09:11:22;18.50;99.90
22145;DHT22;11238;48.730;11.566;2022-10-16T09:14:07;18.60;99.90
22145;DHT22;11238;48.730;11.566;2022-10-16T09:16:44;18.80;99.90
22145;DHT22;11238;48.730;11.566;2022-10-16T09:19:24;18.80;99.90
22145;DHT22;11238;48.730;11.566;2022-10-16T09:21:53;18.80;99.90
22145;DHT22;11238;48.730;11.566;2022-10-16T09:24:21;19.00;99.90
22145;DHT22;11238;48.730;11.566;2022-10-16T09:26:49;19.10;99.90
22145;DHT22;11238;48.730;11.566;2022-10-16T09:29:17;19.40;99.90
22145;DHT22;11238;48.730;11.566;2022-10-16T09:31:46;19.50;99.90
22145;DHT22;11238;48.730;11.566;2022-10-16T09:34:32;19.60;99.90
22145;DHT22;11238;48.730;11.566;2022-10-16T09:36:59;19.90;99.90
22145;DHT22;11238;48.730;11.566;2022-10-16T09:39:27;20.00;99.90
22145;DHT22;11238;48.730;11.566;2022-10-16T09:41:53;20.00;99.90
22145;DHT22;11238;48.730;11.566;2022-10-16T09:44:29;20.20;99.90
22145;DHT22;11238;48.730;11.566;2022-10-16T09:47:15;20.30;99.90
22145;DHT22;11238;48.730;11.566;2022-10-16T09:49:57;20.50;99.90
22145;DHT22;11238;48.730;11.566;2022-10-16T09:52:25;20.60;99.90
22145;DHT22;11238;48.730;11.566;2022-10-16T09:55:03;20.70;99.90
22145;DHT22;11238;48.730;11.566;2022-10-16T09:57:49;20.60;99.90
22145;DHT22;11238;48.730;11.566;2022-10-16T10:00:17;20.60;99.90
22145;DHT22;11238;48.730;11.566;2022-10-16T10:02:43;20.50;99.90
22145;DHT22;11238;48.730;11.566;2022-10-16T10:07:57;20.50;99.90
22145;DHT22;11238;48.730;11.566;2022-10-16T10:10:26;20.60;99.90
22145;DHT22;11238;48.730;11.566;2022-10-16T10:12:54;20.70;99.90
22145;DHT22;11238;48.730;11.566;2022-10-16T10:15:21;20.70;99.90
22145;DHT22;11238;48.730;11.566;2022-10-16T10:17:56;20.70;99.90
22145;DHT22;11238;48.730;11.566;2022-10-16T10:20:31;20.90;99.90
22145;DHT22;11238;48.730;11.566;2022-10-16T10:23:01;21.00;99.90
22145;DHT22;11238;48.730;11.566;2022-10-16T10:25:49;21.20;99.90
22145;DHT22;11238;48.730;11.566;2022-10-16T10:33:28;21.70;99.90
22145;DHT22;11238;48.730;11.566;2022-10-16T10:39:02;22.10;99.90
22145;DHT22;11238;48.730;11.566;2022-10-16T10:41:55;22.10;99.90
22145;DHT22;11238;48.730;11.566;2022-10-16T10:50:48;22.70;99.90
22145;DHT22;11238;48.730;11.566;2022-10-16T10:58:57;23.00;99.20
22145;DHT22;11238;48.730;11.566;2022-10-16T11:01:39;23.10;99.30
22145;DHT22;11238;48.730;11.566;2022-10-16T11:07:09;23.00;97.90
22145;DHT22;11238;48.730;11.566;2022-10-16T11:09:41;23.20;98.10
22145;DHT22;11238;48.730;11.566;2022-10-16T11:12:21;23.20;96.40
22145;DHT22;11238;48.730;11.566;2022-10-16T11:17:58;23.10;94.80
22145;DHT22;11238;48.730;11.566;2022-10-16T11:20:28;23.00;96.30
22145;DHT22;11238;48.730;11.566;2022-10-16T11:23:18;23.00;94.90
22145;DHT22;11238;48.730;11.566;2022-10-16T11:25:47;23.00;94.30
22145;DHT22;11238;48.730;11.566;2022-10-16T11:28:20;23.00;94.10
22145;DHT22;11238;48.730;11.566;2022-10-16T11:31:03;23.00;94.70
22145;DHT22;11238;48.730;11.566;2022-10-16T11:34:04;23.00;93.00
22145;DHT22;11238;48.730;11.566;2022-10-16T11:39:29;23.20;93.50
22145;DHT22;11238;48.730;11.566;2022-10-16T11:42:32;23.40;94.90
22145;DHT22;11238;48.730;11.566;2022-10-16T11:45:23;23.60;95.10
22145;DHT22;11238;48.730;11.566;2022-10-16T11:48:00;23.80;95.20
22145;DHT22;11238;48.730;11.566;2022-10-16T11:55:56;24.00;91.30
22145;DHT22;11238;48.730;11.566;2022-10-16T11:58:42;24.10;92.80
22145;DHT22;11238;48.730;11.566;2022-10-16T12:04:31;24.20;93.60
22145;DHT22;11238;48.730;11.566;2022-10-16T12:07:07;24.10;93.60
22145;DHT22;11238;48.730;11.566;2022-10-16T12:09:38;24.00;93.80
22145;DHT22;11238;48.730;11.566;2022-10-16T12:12:04;23.70;92.80
22145;DHT22;11238;48.730;11.566;2022-10-16T12:14:37;23.60;93.90
22145;DHT22;11238;48.730;11.566;2022-10-16T12:20:00;23.60;94.20
22145;DHT22;11238;48.730;11.566;2022-10-16T12:22:29;23.50;95.00
22145;DHT22;11238;48.730;11.566;2022-10-16T12:24:56;23.50;95.20
22145;DHT22;11238;48.730;11.566;2022-10-16T12:27:31;23.40;95.80
22145;DHT22;11238;48.730;11.566;2022-10-16T12:29:59;23.40;94.40
22145;DHT22;11238;48.730;11.566;2022-10-16T12:32:38;23.50;95.00
22145;DHT22;11238;48.730;11.566;2022-10-16T12:35:16;23.50;95.00
22145;DHT22;11238;48.730;11.566;2022-10-16T12:37:43;23.60;95.90
22145;DHT22;11238;48.730;11.566;2022-10-16T12:40:15;23.60;94.40
22145;DHT22;11238;48.730;11.566;2022-10-16T12:42:42;23.60;93.80
22145;DHT22;11238;48.730;11.566;2022-10-16T12:45:37;23.60;95.50
22145;DHT22;11238;48.730;11.566;2022-10-16T12:48:19;23.40;93.00
22145;DHT22;11238;48.730;11.566;2022-10-16T12:50:45;23.40;95.30
22145;DHT22;11238;48.730;11.566;2022-10-16T12:53:23;23.40;96.10
22145;DHT22;11238;48.730;11.566;2022-10-16T12:55:52;23.30;93.20
22145;DHT22;11238;48.730;11.566;2022-10-16T12:58:27;23.30;94.20
22145;DHT22;11238;48.730;11.566;2022-10-16T13:01:07;23.30;95.70
22145;DHT22;11238;48.730;11.566;2022-10-16T13:07:18;23.50;95.70
22145;DHT22;11238;48.730;11.566;2022-10-16T13:10:06;23.60;96.10
22145;DHT22;11238;48.730;11.566;2022-10-16T13:12:53;23.70;95.80
22145;DHT22;11238;48.730;11.566;2022-10-16T13:18:52;23.60;93.30
22145;DHT22;11238;48.730;11.566;2022-10-16T13:25:15;24.00;92.40
22145;DHT22;11238;48.730;11.566;2022-10-16T13:30:19;24.00;92.10
22145;DHT22;11238;48.730;11.566;2022-10-16T13:35:34;24.30;95.00
22145;DHT22;11238;48.730;11.566;2022-10-16T13:38:12;24.40;92.60
22145;DHT22;11238;48.730;11.566;2022-10-16T13:40:52;24.30;90.60
22145;DHT22;11238;48.730;11.566;2022-10-16T13:43:24;24.40;90.00
22145;DHT22;11238;48.730;11.566;2022-10-16T13:45:55;24.50;90.80
22145;DHT22;11238;48.730;11.566;2022-10-16T13:48:22;24.50;87.50
22145;DHT22;11238;48.730;11.566;2022-10-16T13:50:59;24.40;87.00
22145;DHT22;11238;48.730;11.566;2022-10-16T13:53:25;24.50;86.90
22145;DHT22;11238;48.730;11.566;2022-10-16T13:55:51;24.50;89.10
22145;DHT22;11238;48.730;11.566;2022-10-16T13:58:17;24.50;89.10
22145;DHT22;11238;48.730;11.566;2022-10-16T14:00:56;24.70;85.60
22145;DHT22;11238;48.730;11.566;2022-10-16T14:03:24;24.90;84.40
22145;DHT22;11238;48.730;11.566;2022-10-16T14:05:53;24.90;85.80
22145;DHT22;11238;48.730;11.566;2022-10-16T14:08:20;24.90;87.50
22145;DHT22;11238;48.730;11.566;2022-10-16T14:10:52;25.00;85.70
22145;DHT22;11238;48.730;11.566;2022-10-16T14:13:24;25.00;85.90
22145;DHT22;11238;48.730;11.566;2022-10-16T14:15:52;25.10;83.00
22145;DHT22;11238;48.730;11.566;2022-10-16T14:18:22;24.90;86.70
22145;DHT22;11238;48.730;11.566;2022-10-16T14:20:49;24.90;85.50
22145;DHT22;11238;48.730;11.566;2022-10-16T14:25:48;24.90;81.50
22145;DHT22;11238;48.730;11.566;2022-10-16T14:28:22;24.90;87.80
22145;DHT22;11238;48.730;11.566;2022-10-16T14:30:56;24.90;81.60
22145;DHT22;11238;48.730;11.566;2022-10-16T14:36:14;24.70;86.80
22145;DHT22;11238;48.730;11.566;2022-10-16T14:38:56;24.70;87.60
22145;DHT22;11238;48.730;11.566;2022-10-16T14:41:23;24.70;91.10
22145;DHT22;11238;48.730;11.566;2022-10-16T14:43:55;24.70;90.70
22145;DHT22;11238;48.730;11.566;2022-10-16T14:46:29;24.60;90.60
22145;DHT22;11238;48.730;11.566;2022-10-16T14:49:23;24.50;91.10
22145;DHT22;11238;48.730;11.566;2022-10-16T14:51:49;24.50;88.60
22145;DHT22;11238;48.730;11.566;2022-10-16T14:54:17;24.30;86.30
22145;DHT22;11238;48.730;11.566;2022-10-16T14:56:54;24.40;90.10
22145;DHT22;11238;48.730;11.566;2022-10-16T14:59:32;24.30;87.00
22145;DHT22;11238;48.730;11.566;2022-10-16T15:01:59;24.20;87.80
22145;DHT22;11238;48.730;11.566;2022-10-16T15:04:24;24.10;87.30
22145;DHT22;11238;48.730;11.566;2022-10-16T15:06:50;23.90;87.80
22145;DHT22;11238;48.730;11.566;2022-10-16T15:09:16;23.80;90.70
22145;DHT22;11238;48.730;11.566;2022-10-16T15:11:42;23.80;91.00
22145;DHT22;11238;48.730;11.566;2022-10-16T15:14:11;23.80;91.10
22145;DHT22;11238;48.730;11.566;2022-10-16T15:16:38;23.70;91.20
22145;DHT22;11238;48.730;11.566;2022-10-16T15:19:04;23.60;91.30
22145;DHT22;11238;48.730;11.566;2022-10-16T15:21:31;23.50;91.40
22145;DHT22;11238;48.730;11.566;2022-10-16T15:23:59;23.40;91.70
22145;DHT22;11238;48.730;11.566;2022-10-16T15:26:27;23.30;91.50
22145;DHT22;11238;48.730;11.566;2022-10-16T15:28:54;23.10;91.60
22145;DHT22;11238;48.730;11.566;2022-10-16T15:31:21;23.00;92.40
22145;DHT22;11238;48.730;11.566;2022-10-16T15:33:50;22.90;92.60
22145;DHT22;11238;48.730;11.566;2022-10-16T15:36:33;22.70;92.70
22145;DHT22;11238;48.730;11.566;2022-10-16T15:39:13;22.60;93.50
22145;DHT22;11238;48.730;11.566;2022-10-16T15:41:39;22.30;94.60
22145;DHT22;11238;48.730;11.566;2022-10-16T15:44:05;22.20;95.40
22145;DHT22;11238;48.730;11.566;2022-10-16T15:46:31;22.00;95.80
22145;DHT22;11238;48.730;11.566;2022-10-16T15:48:59;21.90;96.30
22145;DHT22;11238;48.730;11.566;2022-10-16T15:51:26;21.70;96.60
22145;DHT22;11238;48.730;11.566;2022-10-16T15:53:56;21.60;96.80
22145;DHT22;11238;48.730;11.566;2022-10-16T15:56:23;21.50;97.00
22145;DHT22;11238;48.730;11.566;2022-10-16T15:58:51;21.40;97.20
22145;DHT22;11238;48.730;11.566;2022-10-16T16:01:17;21.40;97.40
22145;DHT22;11238;48.730;11.566;2022-10-16T16:03:43;21.40;97.40
22145;DHT22;11238;48.730;11.566;2022-10-16T16:06:12;21.40;97.60
22145;DHT22;11238;48.730;11.566;2022-10-16T16:08:38;21.30;97.50
22145;DHT22;11238;48.730;11.566;2022-10-16T16:11:07;21.30;97.50
22145;DHT22;11238;48.730;11.566;2022-10-16T16:13:33;21.30;97.60
22145;DHT22;11238;48.730;11.566;2022-10-16T16:15:59;21.20;97.40
22145;DHT22;11238;48.730;11.566;2022-10-16T16:18:25;21.10;97.50
22145;DHT22;11238;48.730;11.566;2022-10-16T16:20:51;21.00;97.40
22145;DHT22;11238;48.730;11.566;2022-10-16T16:23:17;21.00;97.90
22145;DHT22;11238;48.730;11.566;2022-10-16T16:25:44;20.80;97.90
22145;DHT22;11238;48.730;11.566;2022-10-16T16:28:10;20.80;98.30
22145;DHT22;11238;48.730;11.566;2022-10-16T16:30:40;20.70;98.50
22145;DHT22;11238;48.730;11.566;2022-10-16T16:33:06;20.60;98.40
22145;DHT22;11238;48.730;11.566;2022-10-16T16:35:33;20.40;98.40
22145;DHT22;11238;48.730;11.566;2022-10-16T16:37:58;20.40;99.00
22145;DHT22;11238;48.730;11.566;2022-10-16T16:40:24;20.30;99.00
22145;DHT22;11238;48.730;11.566;2022-10-16T16:42:50;20.20;98.90
22145;DHT22;11238;48.730;11.566;2022-10-16T16:45:16;20.10;99.10
22145;DHT22;11238;48.730;11.566;2022-10-16T16:47:42;19.90;99.10
22145;DHT22;11238;48.730;11.566;2022-10-16T16:50:07;19.90;99.70
22145;DHT22;11238;48.730;11.566;2022-10-16T16:52:34;19.90;99.60
22145;DHT22;11238;48.730;11.566;2022-10-16T16:55:00;19.80;99.10
22145;DHT22;11238;48.730;11.566;2022-10-16T16:57:27;19.60;99.80
22145;DHT22;11238;48.730;11.566;2022-10-16T16:59:53;19.50;99.90
22145;DHT22;11238;48.730;11.566;2022-10-16T17:02:19;19.60;99.90